sensor_id;sensor_type;location;lat;lon;timestamp;pressure;altitude;pressure_sealevel;temperature;humidity
11648;BME280;5880;52.342;9.662;2023-03-01T00:00:41;102498.72;;;4.00;41.35
11648;BME280;5880;52.342;9.662;2023-03-01T00:03:06;102502.44;;;3.99;41.39
11648;BME280;5880;52.342;9.662;2023-03-01T00:05:32;102504.44;;;3.97;41.67
11648;BME280;5880;52.342;9.662;2023-03-01T00:07:58;102497.34;;;3.96;41.75
11648;BME280;5880;52.342;9.662;2023-03-01T00:10:24;102504.75;;;3.94;41.50
11648;BME280;5880;52.342;9.662;2023-03-01T00:12:51;102508.41;;;3.93;41.83
11648;BME280;5880;52.342;9.662;2023-03-01T00:15:17;102505.00;;;3.91;41.55
11648;BME280;5880;52.342;9.662;2023-03-01T00:17:43;102519.53;;;3.90;41.50
11648;BME280;5880;52.342;9.662;2023-03-01T00:20:09;102514.25;;;3.88;41.61
11648;BME280;5880;52.342;9.662;2023-03-01T00:22:36;102517.13;;;3.87;41.70
11648;BME280;5880;52.342;9.662;2023-03-01T00:25:03;102503.16;;;3.81;41.84
11648;BME280;5880;52.342;9.662;2023-03-01T00:27:29;102517.25;;;3.85;41.73
11648;BME280;5880;52.342;9.662;2023-03-01T00:29:54;102513.97;;;3.81;41.80
11648;BME280;5880;52.342;9.662;2023-03-01T00:32:20;102513.13;;;3.81;41.53
11648;BME280;5880;52.342;9.662;2023-03-01T00:34:46;102518.69;;;3.79;41.41
11648;BME280;5880;52.342;9.662;2023-03-01T00:37:23;102514.25;;;3.78;42.05
11648;BME280;5880;52.342;9.662;2023-03-01T00:39:49;102496.91;;;3.71;41.63
11648;BME280;5880;52.342;9.662;2023-03-01T00:42:16;102503.88;;;3.74;41.83
11648;BME280;5880;52.342;9.662;2023-03-01T00:44:42;102504.88;;;3.73;41.66
11648;BME280;5880;52.342;9.662;2023-03-01T00:47:08;102500.59;;;3.70;41.58
11648;BME280;5880;52.342;9.662;2023-03-01T00:49:34;102500.88;;;3.67;41.88
11648;BME280;5880;52.342;9.662;2023-03-01T00:51:59;102497.44;;;3.65;41.68
11648;BME280;5880;52.342;9.662;2023-03-01T00:54:25;102491.63;;;3.60;41.71
11648;BME280;5880;52.342;9.662;2023-03-01T00:56:51;102500.31;;;3.64;41.97
11648;BME280;5880;52.342;9.662;2023-03-01T00:59:16;102496.03;;;3.61;42.04
11648;BME280;5880;52.342;9.662;2023-03-01T01:01:42;102496.16;;;3.59;42.20
11648;BME280;5880;52.342;9.662;2023-03-01T01:04:11;102496.31;;;3.58;41.57
11648;BME280;5880;52.342;9.662;2023-03-01T01:06:44;102488.47;;;3.55;42.26
11648;BME280;5880;52.342;9.662;2023-03-01T01:09:15;102493.47;;;3.50;42.15
11648;BME280;5880;52.342;9.662;2023-03-01T01:11:50;102498.75;;;3.51;42.24
11648;BME280;5880;52.342;9.662;2023-03-01T01:14:18;102491.72;;;3.49;42.42
11648;BME280;5880;52.342;9.662;2023-03-01T01:16:44;102488.19;;;3.48;41.92
11648;BME280;5880;52.342;9.662;2023-03-01T01:19:11;102486.50;;;3.47;41.71
11648;BME280;5880;52.342;9.662;2023-03-01T01:21:37;102488.34;;;3.47;41.85
11648;BME280;5880;52.342;9.662;2023-03-01T01:24:04;102492.03;;;3.46;42.10
11648;BME280;5880;52.342;9.662;2023-03-01T01:26:32;102483.34;;;3.42;42.28
11648;BME280;5880;52.342;9.662;2023-03-01T01:29:00;102480.06;;;3.38;42.20
11648;BME280;5880;52.342;9.662;2023-03-01T01:31:27;102476.38;;;3.40;42.46
11648;BME280;5880;52.342;9.662;2023-03-01T01:33:54;102475.66;;;3.37;42.29
11648;BME280;5880;52.342;9.662;2023-03-01T01:36:20;102469.38;;;3.37;42.37
11648;BME280;5880;52.342;9.662;2023-03-01T01:38:46;102467.97;;;3.33;41.74
11648;BME280;5880;52.342;9.662;2023-03-01T01:41:13;102468.81;;;3.33;42.00
11648;BME280;5880;52.342;9.662;2023-03-01T01:43:46;102470.69;;;3.33;42.39
11648;BME280;5880;52.342;9.662;2023-03-01T01:46:32;102459.28;;;3.29;42.21
11648;BME280;5880;52.342;9.662;2023-03-01T01:49:04;102474.78;;;3.27;42.38
11648;BME280;5880;52.342;9.662;2023-03-01T01:51:38;102466.94;;;3.24;42.05
11648;BME280;5880;52.342;9.662;2023-03-01T01:54:37;102466.22;;;3.22;42.38
11648;BME280;5880;52.342;9.662;2023-03-01T01:57:13;102462.09;;;3.18;42.18
11648;BME280;5880;52.342;9.662;2023-03-01T01:59:45;102461.25;;;3.17;41.89
11648;BME280;5880;52.342;9.662;2023-03-01T02:02:13;102463.09;;;3.17;42.42
11648;BME280;5880;52.342;9.662;2023-03-01T02:04:39;102464.22;;;3.14;42.15
11648;BME280;5880;52.342;9.662;2023-03-01T02:07:17;102456.97;;;3.15;42.41
11648;BME280;5880;52.342;9.662;2023-03-01T02:09:48;102458.94;;;3.13;42.27
11648;BME280;5880;52.342;9.662;2023-03-01T02:12:20;102459.97;;;3.12;42.58
11648;BME280;5880;52.342;9.662;2023-03-01T02:14:47;102459.25;;;3.10;41.87
11648;BME280;5880;52.342;9.662;2023-03-01T02:17:16;102453.84;;;3.10;42.05
11648;BME280;5880;52.342;9.662;2023-03-01T02:20:06;102442.44;;;3.06;42.25
11648;BME280;5880;52.342;9.662;2023-03-01T02:22:37;102448.00;;;3.05;42.28
11648;BME280;5880;52.342;9.662;2023-03-01T02:30:43;102446.13;;;2.95;42.67
11648;BME280;5880;52.342;9.662;2023-03-01T02:33:30;102443.97;;;2.89;42.36
11648;BME280;5880;52.342;9.662;2023-03-01T02:36:00;102447.38;;;2.91;42.42
11648;BME280;5880;52.342;9.662;2023-03-01T02:38:27;102447.38;;;2.91;42.74
11648;BME280;5880;52.342;9.662;2023-03-01T02:40:55;102450.22;;;2.90;42.63
11648;BME280;5880;52.342;9.662;2023-03-01T02:43:29;102447.50;;;2.90;42.19
11648;BME280;5880;52.342;9.662;2023-03-01T02:46:20;102427.31;;;2.84;42.66
11648;BME280;5880;52.342;9.662;2023-03-01T02:48:57;102437.13;;;2.85;41.97
11648;BME280;5880;52.342;9.662;2023-03-01T02:57:20;102417.22;;;2.77;42.38
11648;BME280;5880;52.342;9.662;2023-03-01T02:59:48;102424.31;;;2.78;42.31
11648;BME280;5880;52.342;9.662;2023-03-01T03:02:29;102419.91;;;2.77;42.49
11648;BME280;5880;52.342;9.662;2023-03-01T03:05:12;102415.47;;;2.75;42.47
11648;BME280;5880;52.342;9.662;2023-03-01T03:07:42;102406.66;;;2.73;42.34
11648;BME280;5880;52.342;9.662;2023-03-01T03:10:16;102408.38;;;2.74;42.55
11648;BME280;5880;52.342;9.662;2023-03-01T03:12:53;102407.53;;;2.74;42.52
11648;BME280;5880;52.342;9.662;2023-03-01T03:15:20;102393.31;;;2.72;42.14
11648;BME280;5880;52.342;9.662;2023-03-01T03:17:48;102393.44;;;2.70;42.49
11648;BME280;5880;52.342;9.662;2023-03-01T03:20:18;102397.00;;;2.71;42.31
11648;BME280;5880;52.342;9.662;2023-03-01T03:22:50;102393.44;;;2.70;42.83
11648;BME280;5880;52.342;9.662;2023-03-01T03:25:20;102383.34;;;2.63;42.79
11648;BME280;5880;52.342;9.662;2023-03-01T03:27:49;102395.84;;;2.64;42.55
11648;BME280;5880;52.342;9.662;2023-03-01T03:30:18;102393.28;;;2.62;42.29
11648;BME280;5880;52.342;9.662;2023-03-01T03:32:47;102394.38;;;2.60;42.87
11648;BME280;5880;52.342;9.662;2023-03-01T03:35:48;102389.56;;;2.53;42.18
11648;BME280;5880;52.342;9.662;2023-03-01T03:38:17;102390.41;;;2.54;42.18
11648;BME280;5880;52.342;9.662;2023-03-01T03:40:50;102387.81;;;2.52;42.73
11648;BME280;5880;52.342;9.662;2023-03-01T03:43:21;102382.59;;;2.51;42.54
11648;BME280;5880;52.342;9.662;2023-03-01T03:45:50;102375.88;;;2.45;42.47
11648;BME280;5880;52.342;9.662;2023-03-01T03:48:17;102389.13;;;2.48;42.73
11648;BME280;5880;52.342;9.662;2023-03-01T03:50:49;102385.53;;;2.48;42.97
11648;BME280;5880;52.342;9.662;2023-03-01T03:53:16;102389.25;;;2.47;42.20
11648;BME280;5880;52.342;9.662;2023-03-01T03:55:41;102387.56;;;2.46;42.45
11648;BME280;5880;52.342;9.662;2023-03-01T03:58:09;102387.66;;;2.44;42.43
11648;BME280;5880;52.342;9.662;2023-03-01T04:00:41;102392.94;;;2.46;42.65
11648;BME280;5880;52.342;9.662;2023-03-01T04:03:08;102389.66;;;2.42;42.43
11648;BME280;5880;52.342;9.662;2023-03-01T04:05:35;102395.06;;;2.42;42.74
11648;BME280;5880;52.342;9.662;2023-03-01T04:08:02;102398.75;;;2.41;42.71
11648;BME280;5880;52.342;9.662;2023-03-01T04:10:31;102395.19;;;2.41;42.75
11648;BME280;5880;52.342;9.662;2023-03-01T04:12:57;102394.44;;;2.39;42.73
11648;BME280;5880;52.342;9.662;2023-03-01T04:15:26;102390.91;;;2.38;42.58
11648;BME280;5880;52.342;9.662;2023-03-01T04:17:54;102390.06;;;2.38;42.54
11648;BME280;5880;52.342;9.662;2023-03-01T04:20:24;102393.75;;;2.37;42.47
11648;BME280;5880;52.342;9.662;2023-03-01T04:23:01;102400.13;;;2.36;42.58
11648;BME280;5880;52.342;9.662;2023-03-01T04:25:48;102408.34;;;2.34;42.63
11648;BME280;5880;52.342;9.662;2023-03-01T04:28:36;102406.78;;;2.31;43.23
11648;BME280;5880;52.342;9.662;2023-03-01T04:31:06;102406.09;;;2.29;43.23
11648;BME280;5880;52.342;9.662;2023-03-01T04:33:44;102402.50;;;2.29;42.94
11648;BME280;5880;52.342;9.662;2023-03-01T04:36:11;102398.25;;;2.26;42.67
11648;BME280;5880;52.342;9.662;2023-03-01T04:38:39;102409.88;;;2.27;42.69
11648;BME280;5880;52.342;9.662;2023-03-01T04:41:08;102406.34;;;2.26;42.98
11648;BME280;5880;52.342;9.662;2023-03-01T04:43:35;102411.59;;;2.28;42.54
11648;BME280;5880;52.342;9.662;2023-03-01T04:46:11;102402.78;;;2.26;43.25
11648;BME280;5880;52.342;9.662;2023-03-01T04:48:39;102400.22;;;2.24;43.11
11648;BME280;5880;52.342;9.662;2023-03-01T04:51:06;102401.22;;;2.23;43.21
11648;BME280;5880;52.342;9.662;2023-03-01T04:53:34;102400.38;;;2.23;43.25
11648;BME280;5880;52.342;9.662;2023-03-01T04:56:02;102395.09;;;2.21;43.00
11648;BME280;5880;52.342;9.662;2023-03-01T04:58:28;102391.66;;;2.19;42.76
11648;BME280;5880;52.342;9.662;2023-03-01T05:00:55;102391.66;;;2.19;43.24
11648;BME280;5880;52.342;9.662;2023-03-01T05:03:22;102399.88;;;2.18;42.71
11648;BME280;5880;52.342;9.662;2023-03-01T05:05:51;102393.63;;;2.17;43.06
11648;BME280;5880;52.342;9.662;2023-03-01T05:08:18;102387.41;;;2.17;43.20
11648;BME280;5880;52.342;9.662;2023-03-01T05:10:52;102389.38;;;2.15;42.93
11648;BME280;5880;52.342;9.662;2023-03-01T05:13:20;102399.31;;;2.14;43.23
11648;BME280;5880;52.342;9.662;2023-03-01T05:15:57;102384.13;;;2.13;43.20
11648;BME280;5880;52.342;9.662;2023-03-01T05:18:30;102385.94;;;2.13;43.45
11648;BME280;5880;52.342;9.662;2023-03-01T05:21:13;102378.00;;;2.11;42.62
11648;BME280;5880;52.342;9.662;2023-03-01T05:23:41;102375.56;;;2.08;43.05
11648;BME280;5880;52.342;9.662;2023-03-01T05:26:08;102381.09;;;2.06;43.12
11648;BME280;5880;52.342;9.662;2023-03-01T05:28:34;102377.41;;;2.07;42.98
11648;BME280;5880;52.342;9.662;2023-03-01T05:31:00;102365.44;;;2.00;43.23
11648;BME280;5880;52.342;9.662;2023-03-01T05:33:27;102370.56;;;2.03;42.92
11648;BME280;5880;52.342;9.662;2023-03-01T05:35:53;102367.03;;;2.03;43.24
11648;BME280;5880;52.342;9.662;2023-03-01T05:38:20;102355.06;;;1.96;43.34
11648;BME280;5880;52.342;9.662;2023-03-01T05:40:48;102363.59;;;2.01;43.41
11648;BME280;5880;52.342;9.662;2023-03-01T05:43:16;102364.31;;;2.03;43.09
11648;BME280;5880;52.342;9.662;2023-03-01T05:45:42;102373.41;;;2.02;43.54
11648;BME280;5880;52.342;9.662;2023-03-01T05:48:10;102377.09;;;2.01;43.33
11648;BME280;5880;52.342;9.662;2023-03-01T05:50:42;102372.81;;;1.98;43.29
11648;BME280;5880;52.342;9.662;2023-03-01T05:53:18;102368.41;;;1.97;43.00
11648;BME280;5880;52.342;9.662;2023-03-01T05:55:47;102372.25;;;1.95;42.92
11648;BME280;5880;52.342;9.662;2023-03-01T05:58:17;102377.63;;;1.95;42.92
11648;BME280;5880;52.342;9.662;2023-03-01T06:00:45;102377.75;;;1.93;43.18
11648;BME280;5880;52.342;9.662;2023-03-01T06:03:13;102370.66;;;1.92;42.83
11648;BME280;5880;52.342;9.662;2023-03-01T06:05:41;102385.13;;;1.91;43.06
11648;BME280;5880;52.342;9.662;2023-03-01T06:08:09;102389.66;;;1.90;43.04
11648;BME280;5880;52.342;9.662;2023-03-01T06:10:35;102380.72;;;1.90;43.25
11648;BME280;5880;52.342;9.662;2023-03-01T06:13:00;102381.56;;;1.90;43.06
11648;BME280;5880;52.342;9.662;2023-03-01T06:15:26;102376.31;;;1.89;43.55
11648;BME280;5880;52.342;9.662;2023-03-01T06:17:54;102381.84;;;1.87;43.57
11648;BME280;5880;52.342;9.662;2023-03-01T06:20:24;102372.44;;;1.82;43.48
11648;BME280;5880;52.342;9.662;2023-03-01T06:22:51;102379.41;;;1.84;43.43
11648;BME280;5880;52.342;9.662;2023-03-01T06:25:23;102381.13;;;1.85;43.14
11648;BME280;5880;52.342;9.662;2023-03-01T06:27:50;102390.19;;;1.84;43.77
11648;BME280;5880;52.342;9.662;2023-03-01T06:30:20;102383.09;;;1.83;43.50
11648;BME280;5880;52.342;9.662;2023-03-01T06:32:46;102385.06;;;1.81;43.49
11648;BME280;5880;52.342;9.662;2023-03-01T06:35:14;102386.06;;;1.80;43.51
11648;BME280;5880;52.342;9.662;2023-03-01T06:37:40;102390.56;;;1.80;43.08
11648;BME280;5880;52.342;9.662;2023-03-01T06:40:08;102382.88;;;1.75;43.38
11648;BME280;5880;52.342;9.662;2023-03-01T06:42:39;102381.53;;;1.81;43.67
11648;BME280;5880;52.342;9.662;2023-03-01T06:45:07;102378.66;;;1.82;43.57
11648;BME280;5880;52.342;9.662;2023-03-01T06:47:34;102386.53;;;1.85;43.38
11648;BME280;5880;52.342;9.662;2023-03-01T06:50:00;102379.28;;;1.86;43.54
11648;BME280;5880;52.342;9.662;2023-03-01T06:52:27;102386.25;;;1.88;43.87
11648;BME280;5880;52.342;9.662;2023-03-01T06:54:52;102381.47;;;1.92;43.89
11648;BME280;5880;52.342;9.662;2023-03-01T06:57:18;102385.72;;;1.95;43.50
11648;BME280;5880;52.342;9.662;2023-03-01T06:59:44;102384.44;;;1.99;43.88
11648;BME280;5880;52.342;9.662;2023-03-01T07:02:11;102381.50;;;2.02;44.27
11648;BME280;5880;52.342;9.662;2023-03-01T07:04:38;102382.81;;;2.07;44.06
11648;BME280;5880;52.342;9.662;2023-03-01T07:07:04;102389.66;;;2.11;44.05
11648;BME280;5880;52.342;9.662;2023-03-01T07:09:29;102380.16;;;2.17;44.47
11648;BME280;5880;52.342;9.662;2023-03-01T07:11:56;102384.28;;;2.21;44.00
11648;BME280;5880;52.342;9.662;2023-03-01T07:14:22;102388.28;;;2.27;44.47
11648;BME280;5880;52.342;9.662;2023-03-01T07:16:50;102383.50;;;2.30;44.65
11648;BME280;5880;52.342;9.662;2023-03-01T07:19:15;102384.53;;;2.39;44.35
11648;BME280;5880;52.342;9.662;2023-03-01T07:21:41;102380.41;;;2.45;44.57
11648;BME280;5880;52.342;9.662;2023-03-01T07:24:07;102381.72;;;2.50;44.72
11648;BME280;5880;52.342;9.662;2023-03-01T07:26:33;102373.94;;;2.57;44.93
11648;BME280;5880;52.342;9.662;2023-03-01T07:29:01;102374.25;;;2.73;46.83
11648;BME280;5880;52.342;9.662;2023-03-01T07:31:26;102370.06;;;3.10;48.23
11648;BME280;5880;52.342;9.662;2023-03-01T07:33:55;102360.66;;;3.72;49.39
11648;BME280;5880;52.342;9.662;2023-03-01T07:36:22;102364.97;;;4.50;50.58
11648;BME280;5880;52.342;9.662;2023-03-01T07:38:48;102359.13;;;5.36;51.37
11648;BME280;5880;52.342;9.662;2023-03-01T07:41:14;102351.44;;;6.19;51.43
11648;BME280;5880;52.342;9.662;2023-03-01T07:43:40;102344.13;;;7.05;51.62
11648;BME280;5880;52.342;9.662;2023-03-01T07:46:05;102355.38;;;7.92;51.15
11648;BME280;5880;52.342;9.662;2023-03-01T07:48:32;102347.34;;;8.54;50.11
11648;BME280;5880;52.342;9.662;2023-03-01T07:50:59;102345.69;;;8.84;48.11
11648;BME280;5880;52.342;9.662;2023-03-01T07:53:26;102341.53;;;8.97;46.31
11648;BME280;5880;52.342;9.662;2023-03-01T07:56:07;102343.75;;;8.93;45.01
11648;BME280;5880;52.342;9.662;2023-03-01T07:58:39;102343.84;;;8.77;44.54
11648;BME280;5880;52.342;9.662;2023-03-01T08:01:07;102349.91;;;8.56;43.80
11648;BME280;5880;52.342;9.662;2023-03-01T08:03:35;102349.13;;;8.31;43.62
11648;BME280;5880;52.342;9.662;2023-03-01T08:06:05;102349.00;;;8.08;43.61
11648;BME280;5880;52.342;9.662;2023-03-01T08:08:32;102359.81;;;7.85;43.03
11648;BME280;5880;52.342;9.662;2023-03-01T08:11:00;102357.75;;;7.62;43.17
11648;BME280;5880;52.342;9.662;2023-03-01T08:13:26;102360.16;;;7.40;43.64
11648;BME280;5880;52.342;9.662;2023-03-01T08:15:52;102354.00;;;7.22;43.48
11648;BME280;5880;52.342;9.662;2023-03-01T08:18:20;102351.09;;;7.07;43.48
11648;BME280;5880;52.342;9.662;2023-03-01T08:20:46;102355.63;;;6.90;43.71
11648;BME280;5880;52.342;9.662;2023-03-01T08:23:12;102361.56;;;6.78;44.11
11648;BME280;5880;52.342;9.662;2023-03-01T08:25:38;102359.13;;;6.66;44.19
11648;BME280;5880;52.342;9.662;2023-03-01T08:28:05;102352.16;;;6.55;43.95
11648;BME280;5880;52.342;9.662;2023-03-01T08:30:31;102345.97;;;6.45;44.19
11648;BME280;5880;52.342;9.662;2023-03-01T08:32:57;102348.97;;;6.34;43.54
11648;BME280;5880;52.342;9.662;2023-03-01T08:35:23;102342.59;;;6.17;43.98
11648;BME280;5880;52.342;9.662;2023-03-01T08:37:49;102349.00;;;6.08;44.26
11648;BME280;5880;52.342;9.662;2023-03-01T08:40:14;102343.16;;;5.95;44.03
11648;BME280;5880;52.342;9.662;2023-03-01T08:42:41;102345.25;;;5.83;44.10
11648;BME280;5880;52.342;9.662;2023-03-01T08:45:10;102340.63;;;5.75;44.17
11648;BME280;5880;52.342;9.662;2023-03-01T08:47:36;102338.56;;;5.69;44.48
11648;BME280;5880;52.342;9.662;2023-03-01T08:50:02;102339.56;;;5.68;44.57
11648;BME280;5880;52.342;9.662;2023-03-01T08:52:27;102347.84;;;5.66;45.08
11648;BME280;5880;52.342;9.662;2023-03-01T08:54:55;102345.13;;;5.66;45.06
11648;BME280;5880;52.342;9.662;2023-03-01T08:57:22;102347.84;;;5.66;44.91
11648;BME280;5880;52.342;9.662;2023-03-01T08:59:47;102338.69;;;5.67;45.12
11648;BME280;5880;52.342;9.662;2023-03-01T09:02:18;102341.28;;;5.69;44.78
11648;BME280;5880;52.342;9.662;2023-03-01T09:04:44;102342.81;;;5.71;45.08
11648;BME280;5880;52.342;9.662;2023-03-01T09:07:10;102339.44;;;5.78;45.22
11648;BME280;5880;52.342;9.662;2023-03-01T09:09:36;102336.25;;;5.82;45.14
11648;BME280;5880;52.342;9.662;2023-03-01T09:12:03;102333.06;;;5.87;44.79
11648;BME280;5880;52.342;9.662;2023-03-01T09:14:29;102328.19;;;5.90;45.14
11648;BME280;5880;52.342;9.662;2023-03-01T09:16:55;102336.81;;;6.12;45.37
11648;BME280;5880;52.342;9.662;2023-03-01T09:19:20;102341.75;;;6.51;46.21
11648;BME280;5880;52.342;9.662;2023-03-01T09:21:46;102334.94;;;7.06;47.12
11648;BME280;5880;52.342;9.662;2023-03-01T09:24:23;102337.34;;;7.82;46.99
11648;BME280;5880;52.342;9.662;2023-03-01T09:26:49;102333.88;;;8.61;46.68
11648;BME280;5880;52.342;9.662;2023-03-01T09:29:17;102328.13;;;9.33;45.65
11648;BME280;5880;52.342;9.662;2023-03-01T09:31:43;102325.66;;;9.99;44.67
11648;BME280;5880;52.342;9.662;2023-03-01T09:34:09;102327.53;;;10.58;44.59
11648;BME280;5880;52.342;9.662;2023-03-01T09:36:35;102316.22;;;11.19;43.79
11648;BME280;5880;52.342;9.662;2023-03-01T09:39:02;102321.22;;;11.80;43.24
11648;BME280;5880;52.342;9.662;2023-03-01T09:42:01;102315.88;;;12.35;42.48
11648;BME280;5880;52.342;9.662;2023-03-01T09:44:45;102316.09;;;12.88;41.74
11648;BME280;5880;52.342;9.662;2023-03-01T09:47:21;102313.47;;;13.28;41.77
11648;BME280;5880;52.342;9.662;2023-03-01T09:50:20;102308.84;;;13.75;41.50
11648;BME280;5880;52.342;9.662;2023-03-01T09:53:09;102305.38;;;14.20;41.14
11648;BME280;5880;52.342;9.662;2023-03-01T09:56:05;102302.06;;;14.63;41.08
11648;BME280;5880;52.342;9.662;2023-03-01T09:59:11;102301.22;;;15.01;39.50
11648;BME280;5880;52.342;9.662;2023-03-01T10:02:14;102308.53;;;15.20;38.98
11648;BME280;5880;52.342;9.662;2023-03-01T10:04:51;102311.38;;;15.38;38.41
11648;BME280;5880;52.342;9.662;2023-03-01T10:07:28;102306.34;;;15.54;37.68
11648;BME280;5880;52.342;9.662;2023-03-01T10:09:58;102309.66;;;15.62;37.00
11648;BME280;5880;52.342;9.662;2023-03-01T10:12:34;102304.75;;;15.71;37.08
11648;BME280;5880;52.342;9.662;2023-03-01T10:15:14;102311.22;;;15.83;37.15
11648;BME280;5880;52.342;9.662;2023-03-01T10:18:00;102303.88;;;15.96;36.04
11648;BME280;5880;52.342;9.662;2023-03-01T10:20:58;102304.09;;;15.94;36.23
11648;BME280;5880;52.342;9.662;2023-03-01T10:23:26;102306.16;;;15.99;36.37
11648;BME280;5880;52.342;9.662;2023-03-01T10:31:45;102304.59;;;16.28;34.56
11648;BME280;5880;52.342;9.662;2023-03-01T10:34:26;102299.06;;;16.28;34.77
11648;BME280;5880;52.342;9.662;2023-03-01T10:37:08;102303.22;;;16.37;34.78
11648;BME280;5880;52.342;9.662;2023-03-01T10:39:35;102297.22;;;16.40;34.27
11648;BME280;5880;52.342;9.662;2023-03-01T10:43:00;102288.19;;;16.33;33.91
11648;BME280;5880;52.342;9.662;2023-03-01T10:47:41;102290.00;;;15.84;33.08
11648;BME280;5880;52.342;9.662;2023-03-01T10:50:21;102300.03;;;15.22;33.17
11648;BME280;5880;52.342;9.662;2023-03-01T10:53:04;102296.19;;;14.46;32.85
11648;BME280;5880;52.342;9.662;2023-03-01T10:55:38;102289.78;;;13.73;33.03
11648;BME280;5880;52.342;9.662;2023-03-01T10:58:22;102292.06;;;13.10;33.92
11648;BME280;5880;52.342;9.662;2023-03-01T11:03:42;102294.84;;;12.07;34.33
11648;BME280;5880;52.342;9.662;2023-03-01T11:08:45;102288.59;;;11.35;35.04
11648;BME280;5880;52.342;9.662;2023-03-01T11:11:19;102282.38;;;10.98;34.90
11648;BME280;5880;52.342;9.662;2023-03-01T11:14:03;102280.38;;;10.71;35.17
11648;BME280;5880;52.342;9.662;2023-03-01T11:16:44;102277.13;;;10.46;35.43
11648;BME280;5880;52.342;9.662;2023-03-01T11:22:01;102288.34;;;10.06;35.91
11648;BME280;5880;52.342;9.662;2023-03-01T11:24:34;102279.97;;;9.93;36.06
11648;BME280;5880;52.342;9.662;2023-03-01T11:27:08;102282.59;;;9.86;36.47
11648;BME280;5880;52.342;9.662;2023-03-01T11:29:44;102274.13;;;9.81;36.46
11648;BME280;5880;52.342;9.662;2023-03-01T11:32:14;102284.75;;;9.76;36.42
11648;BME280;5880;52.342;9.662;2023-03-01T11:34:50;102277.31;;;9.70;36.04
11648;BME280;5880;52.342;9.662;2023-03-01T11:37:36;102276.38;;;9.63;36.62
11648;BME280;5880;52.342;9.662;2023-03-01T11:40:17;102270.06;;;9.62;36.86
11648;BME280;5880;52.342;9.662;2023-03-01T11:43:05;102261.00;;;9.62;37.09
11648;BME280;5880;52.342;9.662;2023-03-01T11:48:52;102260.34;;;9.60;37.35
11648;BME280;5880;52.342;9.662;2023-03-01T11:51:37;102249.25;;;9.61;37.16
11648;BME280;5880;52.342;9.662;2023-03-01T11:54:41;102254.03;;;9.59;37.19
11648;BME280;5880;52.342;9.662;2023-03-01T11:57:24;102234.91;;;9.59;37.32
11648;BME280;5880;52.342;9.662;2023-03-01T12:03:28;102238.97;;;9.63;37.51
11648;BME280;5880;52.342;9.662;2023-03-01T12:13:57;102227.50;;;9.68;37.00
11648;BME280;5880;52.342;9.662;2023-03-01T12:26:03;102224.66;;;9.76;36.54
11648;BME280;5880;52.342;9.662;2023-03-01T12:37:38;102207.91;;;9.64;36.24
11648;BME280;5880;52.342;9.662;2023-03-01T12:46:10;102183.72;;;9.61;37.01
11648;BME280;5880;52.342;9.662;2023-03-01T12:48:54;102182.75;;;9.69;36.87
11648;BME280;5880;52.342;9.662;2023-03-01T12:51:26;102186.44;;;9.76;36.98
11648;BME280;5880;52.342;9.662;2023-03-01T12:53:56;102180.41;;;9.81;36.77
11648;BME280;5880;52.342;9.662;2023-03-01T12:56:31;102172.50;;;9.86;36.65
11648;BME280;5880;52.342;9.662;2023-03-01T13:05:26;102158.06;;;9.92;37.25
11648;BME280;5880;52.342;9.662;2023-03-01T13:08:21;102156.28;;;9.99;37.32
11648;BME280;5880;52.342;9.662;2023-03-01T13:11:00;102156.94;;;10.01;37.37
11648;BME280;5880;52.342;9.662;2023-03-01T13:13:29;102160.31;;;10.03;37.52
11648;BME280;5880;52.342;9.662;2023-03-01T13:15:56;102158.69;;;10.09;37.39
11648;BME280;5880;52.342;9.662;2023-03-01T13:20:55;102149.94;;;10.13;37.41
11648;BME280;5880;52.342;9.662;2023-03-01T13:33:57;102139.28;;;10.19;36.85
11648;BME280;5880;52.342;9.662;2023-03-01T13:38:55;102130.31;;;10.25;36.52
11648;BME280;5880;52.342;9.662;2023-03-01T13:52:39;102107.75;;;10.16;35.32
11648;BME280;5880;52.342;9.662;2023-03-01T13:55:36;102121.41;;;10.16;35.44
11648;BME280;5880;52.342;9.662;2023-03-01T14:00:41;102115.72;;;10.18;35.34
11648;BME280;5880;52.342;9.662;2023-03-01T14:03:20;102113.66;;;10.20;35.36
11648;BME280;5880;52.342;9.662;2023-03-01T14:06:04;102103.56;;;10.20;35.14
11648;BME280;5880;52.342;9.662;2023-03-01T14:08:35;102097.66;;;10.17;35.24
11648;BME280;5880;52.342;9.662;2023-03-01T14:14:32;102102.31;;;10.23;35.62
11648;BME280;5880;52.342;9.662;2023-03-01T14:17:29;102103.81;;;10.25;35.73
11648;BME280;5880;52.342;9.662;2023-03-01T14:20:11;102086.13;;;10.21;35.91
11648;BME280;5880;52.342;9.662;2023-03-01T14:22:41;102096.97;;;10.29;35.93
11648;BME280;5880;52.342;9.662;2023-03-01T14:25:36;102099.31;;;10.32;36.06
11648;BME280;5880;52.342;9.662;2023-03-01T14:28:30;102094.47;;;10.34;35.89
11648;BME280;5880;52.342;9.662;2023-03-01T14:30:59;102095.13;;;10.37;36.36
11648;BME280;5880;52.342;9.662;2023-03-01T14:33:37;102093.72;;;10.41;36.22
11648;BME280;5880;52.342;9.662;2023-03-01T14:36:11;102078.38;;;10.40;36.18
11648;BME280;5880;52.342;9.662;2023-03-01T14:38:44;102085.31;;;10.42;35.94
11648;BME280;5880;52.342;9.662;2023-03-01T14:41:18;102073.34;;;10.43;35.77
11648;BME280;5880;52.342;9.662;2023-03-01T14:43:52;102078.81;;;10.43;35.82
11648;BME280;5880;52.342;9.662;2023-03-01T14:46:32;102068.94;;;10.42;35.68
11648;BME280;5880;52.342;9.662;2023-03-01T14:49:13;102066.63;;;10.46;36.14
11648;BME280;5880;52.342;9.662;2023-03-01T14:51:42;102066.63;;;10.46;36.05
11648;BME280;5880;52.342;9.662;2023-03-01T14:54:29;102056.53;;;10.46;36.07
11648;BME280;5880;52.342;9.662;2023-03-01T14:57:01;102054.44;;;10.48;36.24
11648;BME280;5880;52.342;9.662;2023-03-01T14:59:27;102058.69;;;10.51;36.27
11648;BME280;5880;52.342;9.662;2023-03-01T15:01:57;102056.41;;;10.54;36.40
11648;BME280;5880;52.342;9.662;2023-03-01T15:04:24;102056.00;;;10.57;36.42
11648;BME280;5880;52.342;9.662;2023-03-01T15:06:52;102054.97;;;10.59;35.84
11648;BME280;5880;52.342;9.662;2023-03-01T15:09:20;102052.25;;;10.59;35.54
11648;BME280;5880;52.342;9.662;2023-03-01T15:11:46;102049.69;;;10.57;35.66
11648;BME280;5880;52.342;9.662;2023-03-01T15:14:42;102041.03;;;10.53;35.63
11648;BME280;5880;52.342;9.662;2023-03-01T15:17:37;102039.16;;;10.54;35.61